Time;durP1;ratioP1;P1;durP2;ratioP2;P2;SDS_P1;SDS_P2;PMS_P1;PMS_P2;Temp;Humidity;BMP_temperature;BMP_pressure;BME280_temperature;BME280_humidity;BME280_pressure;Samples;Min_cycle;Max_cycle;Signal;HPM_P1;HPM_P2
2023/05/31 00:01:24;;;;;;;6.63;5.82;;;;;;;10.85;100.00;163400.19;5071578;28;20048;-64
2023/05/31 00:03:49;;;;;;;9.05;6.60;;;;;;;10.83;100.00;163394.81;5070054;28;20036;-66
2023/05/31 00:06:15;;;;;;;7.85;6.85;;;;;;;10.75;100.00;163375.91;5071939;28;20471;-65
2023/05/31 00:08:41;;;;;;;7.68;6.25;;;;;;;10.77;100.00;163381.28;5070275;28;20666;-66
2023/05/31 00:11:07;;;;;;;9.23;7.00;;;;;;;10.75;100.00;163375.91;5071165;28;20033;-66
2023/05/31 00:13:32;;;;;;;9.38;7.97;;;;;;;10.74;100.00;163371.84;5069765;28;20029;-65
2023/05/31 00:15:58;;;;;;;8.43;7.43;;;;;;;10.71;100.00;163365.09;5071777;28;20328;-65
2023/05/31 00:18:23;;;;;;;9.30;6.45;;;;;;;10.69;100.00;163359.66;5069995;28;20040;-65
2023/05/31 00:20:49;;;;;;;9.65;6.57;;;;;;;10.67;100.00;163352.94;5071141;28;20016;-65
2023/05/31 00:23:15;;;;;;;8.60;7.50;;;;;;;10.64;100.00;163346.19;5070060;28;20032;-61
2023/05/31 00:25:40;;;;;;;8.18;7.00;;;;;;;10.62;100.00;163340.78;5071015;28;20044;-62
2023/05/31 00:28:06;;;;;;;7.93;7.05;;;;;;;10.59;100.00;163332.72;5070459;28;20024;-63
2023/05/31 00:30:31;;;;;;;9.52;6.75;;;;;;;10.57;100.00;163327.28;5069266;28;20045;-63
2023/05/31 00:32:56;;;;;;;16.58;9.55;;;;;;;10.56;100.00;163324.59;5071231;28;20028;-64
2023/05/31 00:35:22;;;;;;;11.15;9.80;;;;;;;10.54;100.00;163319.19;5069548;28;20040;-64
2023/05/31 00:37:47;;;;;;;14.48;8.55;;;;;;;10.52;100.00;163313.81;5070754;28;20029;-64
2023/05/31 00:40:12;;;;;;;9.77;8.43;;;;;;;10.50;100.00;163308.41;5069795;28;20040;-64
2023/05/31 00:42:38;;;;;;;12.63;8.30;;;;;;;10.45;100.00;163297.63;5070510;28;20028;-62
2023/05/31 00:45:06;;;;;;;10.32;8.88;;;;;;;10.40;100.00;163282.78;5069796;28;20418;-62
2023/05/31 00:47:31;;;;;;;12.45;9.70;;;;;;;10.40;100.00;163284.09;5051499;28;20021;-65
2023/05/31 00:49:58;;;;;;;9.13;7.88;;;;;;;10.37;100.00;163276.03;5050261;28;20391;-65
2023/05/31 00:52:24;;;;;;;9.55;8.48;;;;;;;10.35;100.00;163270.56;5070979;28;20459;-65
2023/05/31 00:54:50;;;;;;;11.95;8.52;;;;;;;10.32;100.00;163262.44;5069516;28;20064;-65
2023/05/31 00:57:16;;;;;;;10.77;9.68;;;;;;;10.30;100.00;163257.09;5070397;28;20458;-65
2023/05/31 00:59:41;;;;;;;11.45;10.27;;;;;;;10.28;100.00;163251.66;5069302;28;20041;-66
2023/05/31 01:02:07;;;;;;;10.15;9.23;;;;;;;10.24;100.00;163240.91;5070532;28;20072;-65
2023/05/31 01:04:32;;;;;;;11.05;8.90;;;;;;;10.22;100.00;163235.47;5068935;28;20036;-65
2023/05/31 01:07:00;;;;;;;14.40;9.55;;;;;;;10.16;100.00;163221.94;5070282;28;20043;-65
2023/05/31 01:09:27;;;;;;;17.65;12.40;;;;;;;10.20;100.00;163231.41;5069425;28;20043;-65
2023/05/31 01:12:12;;;;;;;22.88;9.52;;;;;;;10.18;100.00;163224.66;5069280;28;20040;-65
2023/05/31 01:14:49;;;;;;;11.13;9.75;;;;;;;10.15;100.00;163217.91;5069170;28;20040;-65
2023/05/31 01:17:30;;;;;;;32.42;11.35;;;;;;;10.12;100.00;163211.19;5070604;28;20107;-65
2023/05/31 01:20:00;;;;;;;11.10;9.90;;;;;;;10.10;100.00;163205.78;5068771;28;20036;-65
2023/05/31 01:22:50;;;;;;;14.75;10.88;;;;;;;10.08;100.00;163199.03;5070811;28;20027;-65
2023/05/31 01:25:22;;;;;;;15.05;9.38;;;;;;;10.08;100.00;163199.03;5068821;28;20036;-66
2023/05/31 01:27:49;;;;;;;12.57;10.93;;;;;;;10.04;100.00;163189.59;5070535;28;20032;-65
2023/05/31 01:30:16;;;;;;;13.68;8.65;;;;;;;10.00;100.00;163180.16;5069050;28;20059;-65
2023/05/31 01:32:43;;;;;;;14.50;10.02;;;;;;;9.97;100.00;163172.06;5070337;28;20032;-65
2023/05/31 01:35:09;;;;;;;13.27;10.13;;;;;;;9.94;100.00;163163.97;5069221;28;20237;-65
2023/05/31 01:37:34;;;;;;;11.52;9.18;;;;;;;9.96;100.00;163169.38;5070194;28;20136;-65
2023/05/31 01:40:00;;;;;;;16.67;8.68;;;;;;;9.94;100.00;163163.97;5068604;28;20097;-65
2023/05/31 01:42:27;;;;;;;15.98;10.10;;;;;;;9.93;100.00;163159.94;5070717;28;20391;-65
2023/05/31 01:44:54;;;;;;;17.95;11.95;;;;;;;9.88;100.00;163146.41;5068915;28;20044;-65
2023/05/31 01:47:21;;;;;;;16.02;12.07;;;;;;;9.91;100.00;163155.84;5070118;28;20035;-65
2023/05/31 01:49:47;;;;;;;12.98;10.30;;;;;;;9.91;100.00;163154.50;5068695;28;20047;-64
2023/05/31 01:52:15;;;;;;;11.38;10.23;;;;;;;9.89;100.00;163149.09;5070359;28;20400;-65
2023/05/31 01:54:40;;;;;;;11.40;10.20;;;;;;;9.88;100.00;163146.41;5068472;28;20068;-65
2023/05/31 01:57:07;;;;;;;13.38;10.93;;;;;;;9.86;100.00;163141.03;5070360;28;20020;-65
2023/05/31 01:59:34;;;;;;;19.83;10.45;;;;;;;9.83;100.00;163135.63;5068278;28;20056;-65
2023/05/31 02:02:01;;;;;;;14.75;11.18;;;;;;;9.81;100.00;163130.22;5069973;28;20051;-66
2023/05/31 02:04:26;;;;;;;11.05;9.80;;;;;;;9.78;100.00;163122.16;5069043;28;20504;-66
2023/05/31 02:06:52;;;;;;;17.98;13.10;;;;;;;9.78;100.00;163120.78;5069965;28;20043;-66
2023/05/31 02:09:19;;;;;;;17.20;12.82;;;;;;;9.69;100.00;163097.84;5068576;28;20090;-66
2023/05/31 02:11:44;;;;;;;20.23;12.38;;;;;;;9.74;100.00;163111.34;5070143;28;20078;-65
2023/05/31 02:14:10;;;;;;;20.52;14.48;;;;;;;9.75;100.00;163114.03;5068955;28;20032;-65
2023/05/31 02:16:35;;;;;;;15.93;10.80;;;;;;;9.70;100.00;163100.56;5070015;28;20458;-66
2023/05/31 02:19:01;;;;;;;15.43;12.88;;;;;;;9.72;100.00;163105.91;5068409;28;20037;-65
2023/05/31 02:21:27;;;;;;;17.95;11.63;;;;;;;9.71;100.00;163103.25;5070770;28;20073;-64
2023/05/31 02:23:52;;;;;;;16.67;13.55;;;;;;;9.68;100.00;163095.16;5072189;28;20050;-65
2023/05/31 02:26:19;;;;;;;18.08;14.35;;;;;;;9.69;100.00;163097.84;5073080;28;20035;-64
2023/05/31 02:28:44;;;;;;;17.70;12.70;;;;;;;9.68;100.00;163095.16;5072064;28;20041;-66
2023/05/31 02:31:10;;;;;;;14.88;13.25;;;;;;;9.67;100.00;163092.44;5073666;28;20035;-66
2023/05/31 02:33:35;;;;;;;21.58;14.55;;;;;;;9.66;100.00;163091.13;5071831;28;20060;-66
2023/05/31 02:36:01;;;;;;;26.58;13.73;;;;;;;9.65;100.00;163087.03;5073336;28;20031;-65
2023/05/31 02:38:26;;;;;;;22.98;14.63;;;;;;;9.66;100.00;163089.75;5071969;28;20052;-65
2023/05/31 02:40:52;;;;;;;14.75;11.65;;;;;;;9.66;100.00;163089.75;5073255;28;20585;-65
2023/05/31 02:43:17;;;;;;;18.38;12.93;;;;;;;9.65;100.00;163088.41;5072120;28;20036;-65
2023/05/31 02:45:43;;;;;;;20.58;13.10;;;;;;;9.64;100.00;163085.72;5073255;28;20447;-65
2023/05/31 02:48:08;;;;;;;17.83;14.88;;;;;;;9.63;100.00;163081.69;5073252;28;20362;-65
2023/05/31 02:50:33;;;;;;;25.05;13.63;;;;;;;9.62;100.00;163078.97;5071681;28;20602;-66
2023/05/31 02:53:00;;;;;;;21.73;14.38;;;;;;;9.59;100.00;163070.84;5073043;28;20032;-65
2023/05/31 02:55:25;;;;;;;22.70;14.52;;;;;;;9.57;100.00;163065.50;5071449;28;20044;-65
2023/05/31 02:57:51;;;;;;;17.05;13.70;;;;;;;9.56;100.00;163064.13;5072799;28;20779;-66
2023/05/31 03:00:17;;;;;;;25.67;14.13;;;;;;;9.55;100.00;163060.09;5071648;28;20036;-64
2023/05/31 03:02:43;;;;;;;21.75;13.45;;;;;;;9.53;100.00;163057.38;5072907;28;20029;-65
2023/05/31 03:05:09;;;;;;;20.40;13.07;;;;;;;9.52;100.00;163054.69;5071240;28;20036;-65
2023/05/31 03:07:37;;;;;;;28.10;15.70;;;;;;;9.51;100.00;163050.66;5072864;28;20078;-65
2023/05/31 03:10:06;;;;;;;16.25;10.52;;;;;;;9.50;100.00;163049.28;5071230;28;20048;-65
2023/05/31 03:12:32;;;;;;;25.33;15.45;;;;;;;9.46;100.00;163038.50;5072930;28;20035;-64
2023/05/31 03:14:57;;;;;;;28.25;16.38;;;;;;;9.45;100.00;163035.81;5071189;28;20044;-65
2023/05/31 03:17:23;;;;;;;22.83;14.98;;;;;;;9.45;100.00;163035.81;5072403;28;20521;-64
2023/05/31 03:19:48;;;;;;;27.00;17.55;;;;;;;9.43;100.00;163030.38;5071255;28;20041;-65
2023/05/31 03:22:14;;;;;;;24.67;16.88;;;;;;;9.42;100.00;163027.69;5072423;28;20040;-65
2023/05/31 03:24:40;;;;;;;25.73;16.90;;;;;;;9.42;100.00;163026.34;5070892;28;20495;-65
2023/05/31 03:27:06;;;;;;;23.23;15.10;;;;;;;9.42;100.00;163027.69;5072459;28;20032;-65
2023/05/31 03:29:31;;;;;;;24.13;16.58;;;;;;;9.39;100.00;163019.63;5071330;28;20626;-65
2023/05/31 03:31:57;;;;;;;27.83;16.13;;;;;;;9.38;100.00;163016.91;5072141;28;20029;-65
2023/05/31 03:34:22;;;;;;;19.52;15.35;;;;;;;9.35;100.00;163008.81;5070474;28;20403;-66
2023/05/31 03:36:48;;;;;;;23.60;17.88;;;;;;;9.35;100.00;163008.81;5072261;28;20021;-66
2023/05/31 03:39:13;;;;;;;32.95;18.48;;;;;;;9.31;100.00;162998.03;5070910;28;20037;-64
2023/05/31 03:41:39;;;;;;;28.60;17.65;;;;;;;9.37;100.00;163014.22;5072157;28;20028;-64
2023/05/31 03:44:04;;;;;;;25.77;16.67;;;;;;;9.39;100.00;163019.63;5070831;28;20036;-63
2023/05/31 03:46:30;;;;;;;33.83;20.77;;;;;;;9.39;100.00;163019.63;5071995;28;20459;-64
2023/05/31 03:48:55;;;;;;;24.77;17.88;;;;;;;9.38;100.00;163016.91;5070460;28;20041;-63
2023/05/31 03:51:20;;;;;;;30.55;18.98;;;;;;;9.38;100.00;163016.91;5072351;28;20035;-64
2023/05/31 03:53:46;;;;;;;30.45;21.15;;;;;;;9.36;100.00;163011.50;5070233;28;20110;-65
2023/05/31 03:56:11;;;;;;;27.10;20.85;;;;;;;9.36;100.00;163012.88;5071954;28;20040;-65
2023/05/31 03:58:36;;;;;;;30.60;18.85;;;;;;;9.34;100.00;163006.16;5070344;28;20032;-65
2023/05/31 04:01:02;;;;;;;27.05;20.73;;;;;;;9.33;100.00;163003.44;5071600;28;20044;-65
2023/05/31 04:03:28;;;;;;;31.98;21.65;;;;;;;9.32;100.00;163000.75;5070639;28;20024;-65
2023/05/31 04:05:53;;;;;;;33.05;21.05;;;;;;;9.25;100.00;162981.84;5070940;28;20055;-62
2023/05/31 04:08:19;;;;;;;29.75;18.98;;;;;;;9.30;100.00;162995.34;5069297;28;20483;-63
2023/05/31 04:10:44;;;;;;;34.50;19.10;;;;;;;9.31;100.00;162998.03;5071367;28;20028;-62
2023/05/31 04:13:09;;;;;;;32.10;21.63;;;;;;;9.26;100.00;162985.91;5071912;28;20060;-62
2023/05/31 04:15:35;;;;;;;33.03;20.25;;;;;;;9.31;100.00;162999.38;5067365;28;20044;-62
2023/05/31 04:18:01;;;;;;;32.33;19.50;;;;;;;9.32;100.00;163000.75;5055053;28;20475;-62
2023/05/31 04:20:26;;;;;;;30.50;18.98;;;;;;;9.34;100.00;163006.16;5049929;28;20044;-62
2023/05/31 04:22:53;;;;;;;31.55;21.15;;;;;;;9.35;100.00;163010.19;5051331;28;20021;-62
2023/05/31 04:25:19;;;;;;;36.58;21.92;;;;;;;9.40;100.00;163022.31;5063652;28;20037;-62
2023/05/31 04:27:44;;;;;;;29.83;19.45;;;;;;;9.42;100.00;162936.72;5070983;28;20033;-62
2023/05/31 04:30:10;;;;;;;37.10;22.15;;;;;;;9.45;100.00;162010.38;5069498;28;20103;-62
2023/05/31 04:32:36;;;;;;;37.45;22.55;;;;;;;9.48;100.00;161164.09;5070919;28;20033;-62
2023/05/31 04:35:03;;;;;;;32.80;19.15;;;;;;;9.55;100.00;160053.03;5069714;28;20040;-62
2023/05/31 04:37:29;;;;;;;38.25;21.35;;;;;;;9.62;100.00;159129.25;5070160;28;20028;-61
2023/05/31 04:39:56;;;;;;;32.28;19.13;;;;;;;9.66;100.00;159092.91;5069540;28;20037;-62
2023/05/31 04:42:24;;;;;;;35.60;20.67;;;;;;;9.67;100.00;159783.00;5071566;28;20059;-62
2023/05/31 04:45:01;;;;;;;34.63;23.42;;;;;;;9.73;100.00;160668.44;5068627;28;20051;-63
2023/05/31 04:47:28;;;;;;;36.75;21.10;;;;;;;9.76;100.00;161125.78;5071332;28;20099;-62
2023/05/31 04:49:56;;;;;;;35.22;20.63;;;;;;;9.84;100.00;161966.09;5069527;28;20128;-61
2023/05/31 04:52:32;;;;;;;34.72;21.42;;;;;;;9.94;100.00;162991.56;5070636;28;20051;-61
2023/05/31 04:54:58;;;;;;;43.58;24.33;;;;;;;9.94;100.00;163162.63;5069956;28;20067;-66
2023/05/31 04:57:24;;;;;;;38.15;22.23;;;;;;;10.08;100.00;163199.03;5071029;28;20032;-66
2023/05/31 04:59:50;;;;;;;35.63;20.52;;;;;;;10.13;100.00;163212.50;5068847;28;20040;-67
2023/05/31 05:02:19;;;;;;;35.30;21.83;;;;;;;10.14;100.00;163216.59;5070795;28;20045;-66
2023/05/31 05:04:45;;;;;;;;;;;;;;;10.19;100.00;163228.75;5069882;28;20039;-66
2023/05/31 05:07:10;;;;;;;42.42;22.13;;;;;;;10.28;100.00;163251.66;5070802;28;20271;-66
2023/05/31 05:09:35;;;;;;;30.25;20.90;;;;;;;10.29;100.00;163255.72;5068049;28;20099;-66
2023/05/31 05:12:02;;;;;;;29.33;18.92;;;;;;;10.40;100.00;163284.09;5070736;28;20033;-66
2023/05/31 05:14:28;;;;;;;35.22;22.73;;;;;;;10.41;100.00;163286.81;5068961;28;20037;-67
2023/05/31 05:16:53;;;;;;;29.23;20.42;;;;;;;10.51;100.00;163311.09;5070632;28;20537;-67
2023/05/31 05:19:20;;;;;;;30.23;21.48;;;;;;;10.59;100.00;163334.03;5068919;28;20029;-66
2023/05/31 05:21:45;;;;;;;31.40;20.52;;;;;;;10.68;100.00;163357.03;5070792;28;20065;-61
2023/05/31 05:24:11;;;;;;;37.38;21.63;;;;;;;10.59;100.00;163332.72;5069210;28;20033;-63
2023/05/31 05:26:36;;;;;;;32.75;22.60;;;;;;;10.77;100.00;163381.28;5070479;28;20025;-63
2023/05/31 05:29:01;;;;;;;22.95;16.58;;;;;;;10.87;100.00;163405.59;5069221;28;20044;-63
2023/05/31 05:31:27;;;;;;;35.97;20.63;;;;;;;10.92;100.00;163419.06;5070267;28;20029;-63
2023/05/31 05:33:52;;;;;;;30.92;18.85;;;;;;;11.05;100.00;163452.84;5069177;28;20043;-63
2023/05/31 05:36:18;;;;;;;26.48;16.73;;;;;;;11.16;100.00;163481.19;5070573;28;20471;-63
2023/05/31 05:38:44;;;;;;;40.58;19.63;;;;;;;11.27;100.00;163510.94;5068875;28;20111;-63
2023/05/31 05:41:12;;;;;;;28.05;16.63;;;;;;;11.31;100.00;163521.72;5070749;28;20024;-63
2023/05/31 05:43:39;;;;;;;28.55;16.65;;;;;;;11.42;100.00;163551.44;5068862;28;20045;-63
2023/05/31 05:46:05;;;;;;;26.73;20.35;;;;;;;11.55;100.00;163583.84;5070246;28;20074;-63
2023/05/31 05:48:30;;;;;;;27.50;15.82;;;;;;;11.46;100.00;163559.50;5069049;28;20032;-63
2023/05/31 05:50:55;;;;;;;26.10;15.48;;;;;;;11.68;100.00;163618.94;5070184;28;20033;-63
2023/05/31 05:53:21;;;;;;;28.40;17.52;;;;;;;11.70;100.00;163624.38;5068802;28;20468;-63
2023/05/31 05:55:53;;;;;;;28.33;17.80;;;;;;;11.82;100.00;163654.06;5070145;28;20021;-63
2023/05/31 05:58:19;;;;;;;24.48;15.48;;;;;;;11.79;100.00;163645.97;5072448;28;20509;-62
2023/05/31 06:00:45;;;;;;;23.20;14.40;;;;;;;11.93;100.00;163683.81;5073600;28;20128;-62
2023/05/31 06:03:14;;;;;;;24.23;16.52;;;;;;;12.06;100.00;163718.97;5074596;28;20031;-63
2023/05/31 06:05:41;;;;;;;25.35;14.15;;;;;;;12.20;100.00;163754.09;5072581;28;20054;-63
2023/05/31 06:08:07;;;;;;;20.65;12.57;;;;;;;12.28;100.00;163774.38;5073343;28;20032;-63
2023/05/31 06:10:33;;;;;;;17.25;12.93;;;;;;;12.35;100.00;163794.63;5071633;28;20040;-62
2023/05/31 06:12:58;;;;;;;22.38;12.00;;;;;;;12.48;100.00;163828.41;5072588;28;20297;-63
2023/05/31 06:15:23;;;;;;;19.20;12.32;;;;;;;12.58;100.00;163852.75;5071484;28;20048;-63
2023/05/31 06:17:49;;;;;;;23.27;14.27;;;;;;;12.66;100.00;163875.72;5073684;28;20529;-63
2023/05/31 06:20:15;;;;;;;23.52;13.60;;;;;;;12.72;100.00;163889.22;5072589;28;20036;-63
2023/05/31 06:22:40;;;;;;;21.48;14.50;;;;;;;12.88;100.00;163932.47;5070363;28;20029;-63
2023/05/31 06:25:06;;;;;;;21.90;12.43;;;;;;;12.98;100.00;163958.16;5070575;28;20097;-63
2023/05/31 06:27:32;;;;;;;24.42;13.10;;;;;;;13.20;100.00;164014.94;5065600;28;20404;-62
2023/05/31 06:30:00;;;;;;;19.98;13.27;;;;;;;13.38;100.00;164062.25;5055469;28;20491;-62
2023/05/31 06:32:26;;;;;;;;;;;;;;;13.49;100.00;164092.06;5054446;28;20379;-63
2023/05/31 06:34:52;;;;;;;19.25;14.88;;;;;;;13.59;100.00;164119.09;5065103;28;19912;-62
2023/05/31 06:37:17;;;;;;;17.83;12.73;;;;;;;13.80;100.00;164173.22;5073117;28;20026;-62
2023/05/31 06:39:43;;;;;;;18.48;12.48;;;;;;;13.96;100.00;164216.47;5071760;28;20040;-62
2023/05/31 06:42:09;;;;;;;25.67;12.55;;;;;;;14.15;100.00;164265.19;5073479;28;20056;-63
2023/05/31 06:44:34;;;;;;;23.63;13.95;;;;;;;14.25;100.00;164292.25;5061622;28;20518;-62
2023/05/31 06:47:00;;;;;;;19.25;11.50;;;;;;;14.33;100.00;164311.19;5053492;28;20049;-63
2023/05/31 06:49:26;;;;;;;14.82;11.10;;;;;;;14.46;100.00;164346.34;5051923;28;20086;-62
2023/05/31 06:51:51;;;;;;;18.05;10.55;;;;;;;14.52;100.00;164362.59;5053011;28;20444;-63
2023/05/31 06:54:17;;;;;;;19.02;11.48;;;;;;;14.64;100.00;164392.31;5051600;28;20036;-63
2023/05/31 06:56:42;;;;;;;22.58;11.07;;;;;;;14.84;100.00;164446.53;5053118;28;20024;-62
2023/05/31 06:59:08;;;;;;;19.05;12.93;;;;;;;14.98;100.00;164481.72;5051424;28;20040;-63
2023/05/31 07:01:33;;;;;;;21.02;11.90;;;;;;;15.03;100.00;164495.22;5052676;28;20437;-63
2023/05/31 07:03:58;;;;;;;19.67;13.02;;;;;;;15.08;100.00;164508.75;5052095;28;20041;-62
2023/05/31 07:06:25;;;;;;;22.73;13.45;;;;;;;15.19;100.00;164538.56;5052780;28;20059;-63
2023/05/31 07:08:51;;;;;;;22.95;15.63;;;;;;;15.32;100.00;164571.03;5050404;28;20045;-63
2023/05/31 07:11:17;;;;;;;31.80;13.55;;;;;;;15.53;100.00;164627.88;5053219;28;20017;-63
2023/05/31 07:13:43;;;;;;;16.83;13.23;;;;;;;15.49;100.00;164615.69;5050978;28;20039;-63
2023/05/31 07:16:08;;;;;;;19.35;11.10;;;;;;;15.45;100.00;164606.22;5052951;28;20028;-63
2023/05/31 07:18:33;;;;;;;17.45;10.30;;;;;;;15.76;100.00;164687.47;5051244;28;20036;-62
2023/05/31 07:20:59;;;;;;;13.55;10.35;;;;;;;16.05;100.00;164763.31;5052431;28;20044;-63
2023/05/31 07:23:25;;;;;;;20.70;12.73;;;;;;;16.27;100.00;164821.59;5051526;28;20087;-63
2023/05/31 07:25:51;;;;;;;17.70;13.07;;;;;;;16.36;100.00;164844.59;5052651;28;20099;-63
2023/05/31 07:28:16;;;;;;;19.38;12.27;;;;;;;16.16;100.00;164793.16;5050727;28;20361;-63
2023/05/31 07:30:41;;;;;;;18.13;11.80;;;;;;;16.32;100.00;164833.78;5052496;28;20389;-62
2023/05/31 07:33:07;;;;;;;16.67;12.00;;;;;;;16.64;100.00;164917.78;5052771;28;20032;-63
2023/05/31 07:35:32;;;;;;;15.38;11.10;;;;;;;16.86;100.00;164976.00;5050704;28;20049;-63
2023/05/31 07:37:57;;;;;;;16.95;12.32;;;;;;;16.76;100.00;164950.28;5052559;28;20028;-63
2023/05/31 07:40:23;;;;;;;12.05;10.38;;;;;;;16.54;100.00;164890.66;5050978;28;20037;-62
2023/05/31 07:42:48;;;;;;;15.07;10.32;;;;;;;16.74;100.00;164944.84;5051793;28;20025;-63
2023/05/31 07:45:14;;;;;;;16.52;11.25;;;;;;;16.89;100.00;164984.16;5066082;28;20045;-62
2023/05/31 07:47:39;;;;;;;20.23;11.68;;;;;;;16.83;100.00;164966.53;5072412;28;20494;-62
2023/05/31 07:50:05;;;;;;;29.27;11.05;;;;;;;17.07;100.00;165031.63;5070437;28;20049;-62
2023/05/31 07:52:30;;;;;;;18.27;11.40;;;;;;;17.29;100.00;165089.88;5071957;28;20073;-62
2023/05/31 07:54:56;;;;;;;16.13;10.52;;;;;;;17.37;100.00;165108.84;5070440;28;20094;-62
2023/05/31 07:57:22;;;;;;;19.27;9.07;;;;;;;17.21;100.00;165066.84;5071718;28;20021;-63
2023/05/31 07:59:50;;;;;;;19.88;10.50;;;;;;;17.28;100.00;165085.81;5070373;28;20376;-63
2023/05/31 08:02:16;;;;;;;21.50;10.60;;;;;;;17.53;100.00;165150.88;5071853;28;20097;-62
2023/05/31 08:04:43;;;;;;;12.13;8.60;;;;;;;17.80;100.00;165221.34;5069765;28;20452;-63
2023/05/31 08:07:08;;;;;;;18.50;9.70;;;;;;;18.05;100.00;165289.22;5072274;28;20031;-63
2023/05/31 08:09:33;;;;;;;15.82;7.45;;;;;;;17.99;100.00;165272.91;5070305;28;20395;-63
2023/05/31 08:11:59;;;;;;;14.50;8.82;;;;;;;17.92;100.00;165255.25;5071597;28;20032;-63
2023/05/31 08:14:24;;;;;;;13.68;9.50;;;;;;;18.20;100.00;165328.50;5070255;28;20029;-62
2023/05/31 08:16:50;;;;;;;19.05;8.32;;;;;;;18.56;100.00;165422.06;5071493;28;20639;-62
2023/05/31 08:19:16;;;;;;;11.20;8.15;;;;;;;18.60;100.00;165432.91;5069936;28;20506;-62
2023/05/31 08:21:41;;;;;;;17.80;8.88;;;;;;;18.49;100.00;165403.09;5071104;28;20017;-63
2023/05/31 08:24:07;;;;;;;14.00;8.13;;;;;;;18.60;100.00;165431.56;5066183;28;20037;-62
2023/05/31 08:26:33;;;;;;;12.93;7.30;;;;;;;18.67;100.00;165451.88;5070839;28;20036;-62
2023/05/31 08:28:58;;;;;;;13.55;7.35;;;;;;;18.53;100.00;165413.91;5069809;28;20609;-62
2023/05/31 08:31:24;;;;;;;12.15;7.43;;;;;;;18.60;100.00;165432.91;5071026;28;20077;-63
2023/05/31 08:33:57;;;;;;;18.50;8.60;;;;;;;18.77;100.00;165476.31;5069787;28;20094;-62
2023/05/31 08:36:23;;;;;;;8.52;6.50;;;;;;;18.75;100.00;165470.88;5071044;28;20028;-62
2023/05/31 08:38:49;;;;;;;15.07;7.03;;;;;;;19.02;100.00;165544.16;5069674;28;20534;-63
2023/05/31 08:41:15;;;;;;;12.05;6.03;;;;;;;19.20;100.00;165588.94;5071134;28;20103;-62
2023/05/31 08:43:41;;;;;;;12.35;6.45;;;;;;;19.33;100.00;165625.56;5067107;28;20060;-63
2023/05/31 08:46:07;;;;;;;19.02;9.23;;;;;;;19.44;100.00;165654.03;5051546;28;20049;-63
2023/05/31 08:48:43;;;;;;;16.83;6.50;;;;;;;19.54;100.00;165679.84;5049535;28;20086;-63
2023/05/31 08:51:08;;;;;;;13.00;6.32;;;;;;;19.85;100.00;165761.28;5050844;28;20029;-62
2023/05/31 08:53:36;;;;;;;17.33;8.43;;;;;;;20.38;100.00;165899.72;5049511;28;20033;-62
2023/05/31 08:56:04;;;;;;;7.63;5.55;;;;;;;20.76;100.00;166001.63;5051135;28;20535;-63
2023/05/31 08:58:29;;;;;;;12.05;6.78;;;;;;;20.27;100.00;165872.63;5049395;28;20075;-63
2023/05/31 09:00:55;;;;;;;13.73;4.68;;;;;;;20.20;100.00;165853.59;5050730;28;20049;-63
2023/05/31 09:03:22;;;;;;;9.75;5.70;;;;;;;20.15;100.00;165840.00;5049483;28;20052;-63
2023/05/31 09:05:48;;;;;;;8.88;5.10;;;;;;;20.24;100.00;165864.44;5050778;28;20025;-63
2023/05/31 09:08:13;;;;;;;11.75;5.97;;;;;;;20.33;100.00;165886.16;5050609;28;20044;-60
2023/05/31 09:10:39;;;;;;;11.43;5.82;;;;;;;20.07;100.00;165818.28;5050567;28;20025;-62
2023/05/31 09:13:06;;;;;;;7.72;4.82;;;;;;;20.22;100.00;165859.00;5050622;28;20101;-63
2023/05/31 09:15:34;;;;;;;11.80;4.90;;;;;;;20.55;100.00;165944.56;5049360;28;20041;-62
2023/05/31 09:18:12;;;;;;;13.15;5.50;;;;;;;20.98;100.00;166057.25;5050934;28;20033;-62
2023/05/31 09:20:37;;;;;;;7.72;4.60;;;;;;;21.33;100.00;166149.63;5048722;28;20080;-63
2023/05/31 09:23:03;;;;;;;11.65;6.00;;;;;;;21.16;100.00;166106.16;5050733;28;20063;-63
2023/05/31 09:25:42;;;;;;;8.43;5.63;;;;;;;21.30;100.00;166141.47;5049200;28;20033;-63
2023/05/31 09:28:07;;;;;;;10.27;5.47;;;;;;;21.34;100.00;166152.31;5050421;28;20525;-63
2023/05/31 09:30:33;;;;;;;17.52;7.40;;;;;;;21.38;100.00;166163.19;5048852;28;20051;-63
2023/05/31 09:32:59;;;;;;;12.05;4.03;;;;;;;21.17;100.00;166108.91;5056841;28;20049;-63
2023/05/31 09:35:27;;;;;;;11.85;6.53;;;;;;;20.98;100.00;166057.25;5055560;28;20041;-62
2023/05/31 09:37:53;;;;;;;6.18;4.65;;;;;;;21.09;100.00;166087.16;5057301;28;20086;-63
2023/05/31 09:40:26;;;;;;;13.80;4.90;;;;;;;21.21;100.00;166119.75;5055697;28;20132;-62
2023/05/31 09:42:53;;;;;;;7.95;4.80;;;;;;;21.14;100.00;166099.38;5056582;28;20104;-62
2023/05/31 09:45:20;;;;;;;7.38;4.85;;;;;;;21.30;100.00;166141.47;5071324;28;20040;-62
2023/05/31 09:47:46;;;;;;;17.50;3.80;;;;;;;21.59;100.00;166217.56;5077216;28;20066;-62
2023/05/31 09:50:15;;;;;;;9.63;4.80;;;;;;;21.97;100.00;166319.44;5075234;28;20088;-63
2023/05/31 09:52:43;;;;;;;9.50;4.30;;;;;;;22.28;100.00;166399.63;5076984;28;20391;-63
2023/05/31 09:55:10;;;;;;;;;;;;;;;22.33;100.00;166413.19;5076198;28;20036;-63
2023/05/31 09:57:40;;;;;;;8.50;4.65;;;;;;;-146.58;100.00;69501.63;5076459;28;19915;-63
2023/05/31 10:00:14;;;;;;;11.93;3.80;;;;;;;-146.58;100.00;69501.63;5075529;28;20491;-62
2023/05/31 10:02:42;;;;;;;13.77;4.13;;;;;;;22.72;100.00;166516.53;5076808;28;20120;-62
2023/05/31 10:05:08;;;;;;;17.48;5.22;;;;;;;22.34;100.00;166417.25;5075271;28;20036;-62
2023/05/31 10:07:34;;;;;;;8.27;3.25;;;;;;;22.04;100.00;166337.13;5076984;28;20028;-62
2023/05/31 10:10:00;;;;;;;8.68;4.15;;;;;;;22.15;100.00;166366.97;5075793;28;20441;-62
2023/05/31 10:12:27;;;;;;;8.85;3.75;;;;;;;22.38;100.00;166426.75;5076779;28;20390;-62
2023/05/31 10:15:01;;;;;;;8.90;3.63;;;;;;;22.59;100.00;166482.53;5074090;28;20082;-62
2023/05/31 10:17:29;;;;;;;6.20;3.38;;;;;;;22.66;100.00;166500.25;5076526;28;20024;-63
2023/05/31 10:20:00;;;;;;;7.70;5.13;;;;;;;22.86;100.00;166551.88;5074827;28;20147;-62
2023/05/31 10:22:30;;;;;;;7.72;4.07;;;;;;;23.31;100.00;166671.53;5077182;28;20020;-63
2023/05/31 10:25:10;;;;;;;13.80;4.50;;;;;;;23.60;100.00;166747.66;5074978;28;20040;-63
2023/05/31 10:27:38;;;;;;;11.93;5.05;;;;;;;23.67;100.00;166766.69;5076575;28;20471;-62
2023/05/31 10:30:04;;;;;;;8.63;3.88;;;;;;;23.72;100.00;166780.28;5061912;28;20411;-62
2023/05/31 10:32:33;;;;;;;10.65;3.85;;;;;;;23.14;100.00;166627.97;5057034;28;20079;-62
2023/05/31 10:34:58;;;;;;;5.45;3.28;;;;;;;23.02;100.00;166593.97;5069164;28;20664;-62
2023/05/31 10:37:25;;;;;;;8.90;3.45;;;;;;;22.70;100.00;166509.75;5076234;28;20110;-63
2023/05/31 10:40:09;;;;;;;9.02;3.72;;;;;;;22.81;100.00;166541.00;5075008;28;20044;-62
2023/05/31 10:42:52;;;;;;;8.43;3.30;;;;;;;22.93;100.00;166570.88;5075780;28;20036;-63
2023/05/31 10:45:42;;;;;;;5.05;3.70;;;;;;;22.89;100.00;166561.38;5072139;28;20521;-63
2023/05/31 10:48:20;;;;;;;7.45;3.28;;;;;;;23.21;100.00;166644.31;5073485;28;20024;-62
2023/05/31 10:50:57;;;;;;;9.40;5.68;;;;;;;23.37;100.00;166687.84;5071745;28;20063;-62
2023/05/31 10:53:27;;;;;;;5.65;3.13;;;;;;;22.79;100.00;166535.56;5072096;28;20025;-62
2023/05/31 10:55:52;;;;;;;11.13;4.65;;;;;;;23.00;100.00;166589.91;5073099;28;20024;-62
2023/05/31 10:58:29;;;;;;;7.97;3.75;;;;;;;23.50;100.00;166720.44;5071789;28;20090;-62
2023/05/31 11:01:03;;;;;;;11.40;4.90;;;;;;;23.69;100.00;166772.16;5073057;28;20053;-62
2023/05/31 11:03:31;;;;;;;10.15;3.60;;;;;;;23.68;100.00;166768.09;5071495;28;20029;-62
2023/05/31 11:06:03;;;;;;;5.10;2.72;;;;;;;23.54;100.00;166731.34;5073259;28;20063;-62
2023/05/31 11:08:30;;;;;;;7.50;3.70;;;;;;;23.58;100.00;166742.22;5071787;28;20458;-63